createdAt,value
2018-03-01T00:01:57.066Z,52.78
2018-03-01T00:04:23.290Z,64.80
2018-03-01T00:06:49.512Z,63.67
2018-03-01T00:09:15.735Z,52.75
2018-03-01T00:11:42.682Z,67.62
2018-03-01T00:14:08.898Z,62.13
2018-03-01T00:16:35.137Z,48.58
2018-03-01T00:19:01.977Z,58.33
2018-03-01T00:21:28.198Z,56.95
2018-03-01T00:23:54.410Z,59.97
2018-03-01T00:26:21.387Z,62.10
2018-03-01T00:28:47.581Z,51.75
2018-03-01T00:31:13.796Z,66.05
2018-03-01T00:33:40.002Z,55.35
2018-03-01T00:36:06.219Z,60.90
2018-03-01T00:38:33.194Z,65.03
2018-03-01T00:40:59.385Z,60.70
2018-03-01T00:43:25.595Z,57.72
2018-03-01T00:45:51.797Z,60.75
2018-03-01T00:48:17.993Z,57.40
2018-03-01T00:50:44.211Z,53.42
2018-03-01T00:53:10.438Z,51.72
2018-03-01T00:55:36.951Z,52.75
2018-03-01T00:58:03.161Z,56.50
2018-03-01T01:00:29.385Z,63.90
2018-03-01T01:02:55.615Z,57.05
2018-03-01T01:05:21.815Z,66.40
2018-03-01T01:07:48.032Z,56.90
2018-03-01T01:10:14.244Z,57.75
2018-03-01T01:12:40.463Z,54.92
2018-03-01T01:15:06.674Z,61.92
2018-03-01T01:17:32.894Z,63.58
2018-03-01T01:19:59.117Z,63.60
2018-03-01T01:22:25.327Z,59.33
2018-03-01T01:24:51.545Z,63.67
2018-03-01T01:27:18.499Z,65.95
2018-03-01T01:29:45.473Z,60.38
2018-03-01T01:32:11.664Z,61.83
2018-03-01T01:34:37.901Z,57.45
2018-03-01T01:37:04.111Z,61.45
2018-03-01T01:39:30.330Z,60.22
2018-03-01T01:41:57.264Z,63.00
2018-03-01T01:44:23.480Z,73.10
2018-03-01T01:46:49.702Z,62.85
2018-03-01T01:49:15.902Z,55.83
2018-03-01T01:51:42.863Z,66.37
2018-03-01T01:54:09.830Z,78.47
2018-03-01T01:56:36.086Z,67.72
2018-03-01T01:59:02.280Z,61.75
2018-03-01T02:01:28.515Z,53.87
2018-03-01T02:03:54.717Z,63.22
2018-03-01T02:06:20.972Z,66.55
2018-03-01T02:08:47.203Z,66.15
2018-03-01T02:11:13.428Z,63.83
2018-03-01T02:13:39.650Z,76.85
2018-03-01T02:16:05.862Z,82.93
2018-03-01T02:18:32.062Z,62.10
2018-03-01T02:20:58.289Z,73.78
2018-03-01T02:23:24.439Z,68.30
2018-03-01T02:25:50.650Z,70.47
2018-03-01T02:28:16.864Z,65.05
2018-03-01T02:30:43.837Z,68.78
2018-03-01T02:33:10.823Z,50.25
2018-03-01T02:35:37.055Z,62.42
2018-03-01T02:38:03.297Z,79.80
2018-03-01T02:40:29.531Z,61.08
2018-03-01T02:42:55.767Z,67.37
2018-03-01T02:45:21.977Z,62.55
2018-03-01T02:47:48.941Z,58.42
2018-03-01T02:50:15.906Z,63.72
2018-03-01T02:52:42.868Z,65.62
2018-03-01T02:55:09.832Z,72.43
2018-03-01T02:57:36.811Z,74.03
2018-03-01T03:00:03.083Z,70.43
2018-03-01T03:02:29.319Z,69.65
2018-03-01T03:04:55.549Z,73.53
2018-03-01T03:07:21.795Z,75.53
2018-03-01T03:09:48.007Z,66.57
2018-03-01T03:12:14.230Z,67.97
2018-03-01T03:14:41.184Z,68.37
2018-03-01T03:17:08.141Z,67.53
2018-03-01T03:19:35.091Z,58.22
2018-03-01T03:22:02.033Z,72.10
2018-03-01T03:24:28.263Z,63.33
2018-03-01T03:26:54.481Z,62.03
2018-03-01T03:29:20.687Z,60.83
2018-03-01T03:31:46.926Z,45.25
2018-03-01T03:34:13.145Z,65.03
2018-03-01T03:36:40.108Z,39.58
2018-03-01T03:39:07.078Z,62.38
2018-03-01T03:41:33.299Z,57.35
2018-03-01T03:44:00.257Z,73.28
2018-03-01T03:46:27.207Z,63.13
2018-03-01T03:48:53.433Z,54.13
2018-03-01T03:51:19.651Z,71.15
2018-03-01T03:53:45.870Z,61.70
2018-03-01T03:56:12.094Z,61.00
2018-03-01T03:58:38.326Z,69.22
2018-03-01T04:01:05.281Z,72.50
2018-03-01T04:03:32.251Z,56.60
2018-03-01T04:05:58.487Z,69.32
2018-03-01T04:08:25.431Z,67.10
2018-03-01T04:10:52.411Z,68.72
2018-03-01T04:13:18.617Z,90.35
2018-03-01T04:15:44.838Z,63.10
2018-03-01T04:18:11.038Z,57.58
2018-03-01T04:20:37.254Z,80.30
2018-03-01T04:23:04.215Z,72.15
2018-03-01T04:25:31.192Z,73.97
2018-03-01T04:27:57.414Z,72.12
2018-03-01T04:30:24.413Z,70.68
2018-03-01T04:32:50.637Z,57.05
2018-03-01T04:35:16.884Z,65.87
2018-03-01T04:37:43.096Z,70.28
2018-03-01T04:40:10.034Z,64.60
2018-03-01T04:42:36.252Z,63.40
2018-03-01T04:45:02.516Z,69.28
2018-03-01T04:47:28.704Z,61.03
2018-03-01T04:49:54.946Z,59.28
2018-03-01T04:52:21.142Z,69.03
2018-03-01T04:54:48.078Z,81.82
2018-03-01T04:57:14.310Z,76.82
2018-03-01T04:59:40.520Z,71.05
2018-03-01T05:02:06.762Z,65.75
2018-03-01T05:04:32.980Z,57.13
2018-03-01T05:06:59.210Z,63.60
2018-03-01T05:09:25.422Z,58.63
2018-03-01T05:11:51.642Z,58.72
2018-03-01T05:14:17.882Z,74.75
2018-03-01T05:16:44.100Z,63.03
2018-03-01T05:19:10.328Z,68.90
2018-03-01T05:21:36.535Z,65.82
2018-03-01T05:24:03.480Z,69.50
2018-03-01T05:26:29.700Z,74.10
2018-03-01T05:28:55.916Z,67.90
2018-03-01T05:31:22.156Z,72.28
2018-03-01T05:33:48.378Z,70.07
2018-03-01T05:36:14.575Z,61.97
2018-03-01T05:38:40.795Z,57.28
2018-03-01T05:41:06.992Z,61.08
2018-03-01T05:43:33.236Z,59.22
2018-03-01T05:45:59.443Z,82.78
2018-03-01T05:48:26.414Z,68.00
2018-03-01T05:50:53.374Z,64.93
2018-03-01T05:53:20.333Z,78.65
2018-03-01T05:55:47.305Z,74.50
2018-03-01T05:58:13.540Z,60.12
2018-03-01T06:00:39.757Z,59.83
2018-03-01T06:03:06.742Z,61.53
2018-03-01T06:05:32.979Z,69.72
2018-03-01T06:07:59.199Z,66.35
2018-03-01T06:10:26.146Z,65.30
2018-03-01T06:12:52.369Z,69.22
2018-03-01T06:15:18.595Z,81.10
2018-03-01T06:17:44.912Z,67.90
2018-03-01T06:20:11.140Z,63.05
2018-03-01T06:22:37.364Z,75.47
2018-03-01T06:25:04.315Z,68.07
2018-03-01T06:27:31.297Z,61.33
2018-03-01T06:29:57.492Z,67.93
2018-03-01T06:32:23.726Z,61.45
2018-03-01T06:34:49.952Z,69.75
2018-03-01T06:37:16.179Z,64.68
2018-03-01T06:39:42.410Z,55.35
2018-03-01T06:42:08.606Z,72.62
2018-03-01T06:44:34.842Z,62.42
2018-03-01T06:47:01.063Z,56.95
2018-03-01T06:49:27.258Z,55.42
2018-03-01T06:51:53.485Z,62.22
2018-03-01T06:54:20.452Z,61.88
2018-03-01T06:56:46.679Z,73.78
2018-03-01T06:59:13.653Z,60.25
2018-03-01T07:01:39.898Z,58.47
2018-03-01T07:04:06.101Z,65.07
2018-03-01T07:06:32.316Z,61.75
2018-03-01T07:08:58.520Z,64.40
2018-03-01T07:11:24.751Z,68.05
2018-03-01T07:13:50.994Z,66.55
2018-03-01T07:16:17.226Z,54.15
2018-03-01T07:18:43.466Z,76.90
2018-03-01T07:21:09.688Z,59.72
2018-03-01T07:23:36.943Z,71.93
2018-03-01T07:26:03.909Z,84.95
2018-03-01T07:28:30.855Z,64.40
2018-03-01T07:30:57.101Z,57.62
2018-03-01T07:33:24.067Z,65.15
2018-03-01T07:35:51.084Z,72.90
2018-03-01T07:38:17.308Z,74.55
2018-03-01T07:40:43.545Z,56.20
2018-03-01T07:43:09.776Z,61.85
2018-03-01T07:45:36.019Z,62.92
2018-03-01T07:48:02.272Z,69.25
2018-03-01T07:50:28.495Z,64.72
2018-03-01T07:52:54.744Z,61.00
2018-03-01T07:55:20.952Z,55.05
2018-03-01T07:57:47.930Z,67.07
2018-03-01T08:00:14.161Z,66.28
2018-03-01T08:02:41.140Z,61.75
2018-03-01T08:05:07.356Z,56.15
2018-03-01T08:07:33.605Z,62.40
2018-03-01T08:09:59.848Z,67.70
2018-03-01T08:12:26.056Z,54.20
2018-03-01T08:14:53.016Z,61.47
2018-03-01T08:17:19.972Z,65.50
2018-03-01T08:19:46.181Z,52.70
2018-03-01T08:22:12.402Z,69.95
2018-03-01T08:24:38.649Z,70.15
2018-03-01T08:27:04.860Z,75.93
2018-03-01T08:29:31.083Z,65.18
2018-03-01T08:31:58.056Z,55.53
2018-03-01T08:34:24.299Z,64.60
2018-03-01T08:36:50.527Z,63.80
2018-03-01T08:39:17.483Z,68.93
2018-03-01T08:41:44.445Z,67.75
2018-03-01T08:44:11.404Z,69.12
2018-03-01T08:46:37.635Z,65.35
2018-03-01T08:49:04.599Z,59.50
2018-03-01T08:51:31.591Z,55.45
2018-03-01T08:53:58.505Z,66.78
2018-03-01T08:56:25.473Z,58.97
2018-03-01T08:58:51.679Z,54.22
2018-03-01T09:01:17.935Z,67.70
2018-03-01T09:03:44.903Z,69.30
2018-03-01T09:06:12.147Z,59.40
2018-03-01T09:08:38.379Z,70.25
2018-03-01T09:11:04.612Z,60.65
2018-03-01T09:13:30.837Z,58.35
2018-03-01T09:15:57.033Z,56.00
2018-03-01T09:18:24.017Z,68.50
2018-03-01T09:20:50.235Z,71.07
2018-03-01T09:23:17.185Z,60.38
2018-03-01T09:25:44.159Z,55.78
2018-03-01T09:28:10.379Z,57.30
2018-03-01T09:30:37.372Z,68.22
2018-03-01T09:33:03.608Z,69.62
2018-03-01T09:35:29.830Z,57.17
2018-03-01T09:37:56.035Z,55.42
2018-03-01T09:40:22.254Z,63.58
2018-03-01T09:42:48.473Z,60.20
2018-03-01T09:45:14.704Z,65.78
2018-03-01T09:47:40.947Z,62.50
2018-03-01T09:50:07.992Z,60.47
2018-03-01T09:52:34.220Z,70.22
2018-03-01T09:55:01.195Z,64.22
2018-03-01T09:57:27.384Z,68.57
2018-03-01T09:59:53.634Z,64.15
2018-03-01T10:02:19.905Z,65.43
2018-03-01T10:04:46.894Z,64.20
2018-03-01T10:07:13.148Z,67.55
2018-03-01T10:09:39.356Z,62.62
2018-03-01T10:12:05.575Z,58.80
2018-03-01T10:14:32.535Z,59.92
2018-03-01T10:16:59.503Z,57.03
2018-03-01T10:19:25.719Z,53.65
2018-03-01T10:21:52.677Z,64.03
2018-03-01T10:24:18.880Z,41.75
2018-03-01T10:26:45.112Z,57.40
2018-03-01T10:29:11.316Z,46.40
2018-03-01T10:31:37.564Z,59.55
2018-03-01T10:34:03.796Z,57.13
2018-03-01T10:36:30.732Z,55.90
2018-03-01T10:38:56.992Z,58.78
2018-03-01T10:41:23.946Z,52.28
2018-03-01T10:43:50.924Z,60.60
2018-03-01T10:46:17.152Z,61.00
2018-03-01T10:48:44.123Z,57.13
2018-03-01T10:51:10.364Z,59.65
2018-03-01T10:53:36.583Z,56.45
2018-03-01T10:56:03.552Z,68.90
2018-03-01T10:58:29.802Z,77.00
2018-03-01T11:00:59.046Z,78.53
2018-03-01T11:03:25.290Z,61.30
2018-03-01T11:05:51.524Z,65.25
2018-03-01T11:08:17.778Z,64.97
2018-03-01T11:10:44.026Z,63.13
2018-03-01T11:13:10.298Z,60.12
2018-03-01T11:15:36.531Z,70.20
2018-03-01T11:18:03.527Z,64.57
2018-03-01T11:20:29.784Z,67.97
2018-03-01T11:22:56.027Z,65.93
2018-03-01T11:25:22.269Z,61.65
2018-03-01T11:27:48.471Z,62.58
2018-03-01T11:30:14.963Z,57.25
2018-03-01T11:32:41.197Z,63.00
2018-03-01T11:35:07.436Z,75.75
2018-03-01T11:37:33.669Z,54.25
2018-03-01T11:39:59.859Z,60.65
2018-03-01T11:42:26.823Z,50.75
2018-03-01T11:44:53.049Z,68.22
2018-03-01T11:47:20.028Z,60.28
2018-03-01T11:49:46.237Z,67.93
2018-03-01T11:52:13.223Z,58.97
2018-03-01T11:54:39.514Z,61.20
2018-03-01T11:57:05.731Z,54.05
2018-03-01T11:59:31.956Z,61.00
2018-03-01T12:01:58.181Z,69.40
2018-03-01T12:04:25.156Z,65.87
2018-03-01T12:06:51.402Z,56.03
2018-03-01T12:09:17.646Z,59.13
2018-03-01T12:11:43.868Z,66.55
2018-03-01T12:14:10.078Z,55.08
2018-03-01T12:16:37.060Z,54.67
2018-03-01T12:19:03.268Z,60.45
2018-03-01T12:21:29.524Z,58.17
2018-03-01T12:23:56.476Z,56.33
2018-03-01T12:26:23.450Z,60.65
2018-03-01T12:28:50.432Z,61.40
2018-03-01T12:31:16.672Z,63.42
2018-03-01T12:33:42.884Z,65.10
2018-03-01T12:36:09.840Z,53.70
2018-03-01T12:38:36.800Z,58.40
2018-03-01T12:41:03.752Z,65.47
2018-03-01T12:43:30.724Z,60.45
2018-03-01T12:45:56.964Z,66.87
2018-03-01T12:48:23.194Z,72.30
2018-03-01T12:50:50.213Z,66.37
2018-03-01T12:53:16.458Z,65.82
2018-03-01T12:55:42.728Z,73.10
2018-03-01T12:58:09.715Z,64.37
2018-03-01T13:00:35.978Z,72.80
2018-03-01T13:03:02.257Z,57.45
2018-03-01T13:05:28.510Z,64.00
2018-03-01T13:07:55.537Z,70.43
2018-03-01T13:10:21.797Z,63.20
2018-03-01T13:12:48.053Z,76.07
2018-03-01T13:15:15.044Z,62.83
2018-03-01T13:17:41.288Z,65.90
2018-03-01T13:20:07.563Z,65.18
2018-03-01T13:22:36.646Z,81.18
2018-03-01T13:25:02.915Z,65.68
2018-03-01T13:27:29.191Z,60.08
2018-03-01T13:29:56.187Z,63.60
2018-03-01T13:32:35.397Z,53.60
2018-03-01T13:35:02.452Z,64.40
2018-03-01T13:37:29.441Z,66.85
2018-03-01T13:39:55.709Z,65.07
2018-03-01T13:42:22.959Z,67.93
2018-03-01T13:44:49.213Z,75.82
2018-03-01T13:47:15.458Z,66.30
2018-03-01T13:49:41.703Z,66.97
2018-03-01T13:52:07.954Z,62.28
2018-03-01T13:54:34.209Z,75.72
2018-03-01T13:57:01.178Z,81.85
2018-03-01T13:59:28.157Z,60.33
2018-03-01T14:01:54.444Z,55.53
2018-03-01T14:04:20.708Z,70.35
2018-03-01T14:06:48.477Z,67.60
2018-03-01T14:09:18.546Z,75.30
2018-03-01T14:11:44.796Z,65.95
2018-03-01T14:14:11.060Z,62.05
2018-03-01T14:16:37.332Z,66.95
2018-03-01T14:19:04.694Z,65.80
2018-03-01T14:21:33.750Z,67.57
2018-03-01T14:24:09.970Z,72.82
2018-03-01T14:26:57.111Z,68.72
2018-03-01T14:29:39.250Z,78.25
2018-03-01T14:32:05.474Z,63.60
2018-03-01T14:34:32.767Z,69.07
2018-03-01T14:36:58.948Z,71.10
2018-03-01T14:39:25.241Z,71.85
2018-03-01T14:41:51.505Z,68.05
2018-03-01T14:44:17.748Z,68.80
2018-03-01T14:46:43.997Z,77.90
2018-03-01T14:49:10.221Z,76.93
2018-03-01T14:51:36.466Z,61.20
2018-03-01T14:54:02.692Z,80.97
2018-03-01T14:56:28.918Z,73.70
2018-03-01T14:58:55.937Z,78.87
2018-03-01T15:01:22.183Z,83.05
2018-03-01T15:03:49.208Z,109.50
2018-03-01T15:06:15.428Z,71.12
2018-03-01T15:08:41.660Z,72.22
2018-03-01T15:11:07.874Z,76.53
2018-03-01T15:13:34.094Z,75.55
2018-03-01T15:16:00.344Z,70.97
2018-03-01T15:18:26.597Z,75.45
2018-03-01T15:20:52.860Z,67.07
2018-03-01T15:23:19.072Z,76.65
2018-03-01T15:25:45.335Z,75.43
2018-03-01T15:28:12.325Z,70.37
2018-03-01T15:30:38.556Z,71.40
2018-03-01T15:33:04.808Z,68.03
2018-03-01T15:35:31.052Z,70.35
2018-03-01T15:37:57.307Z,74.10
2018-03-01T15:40:23.543Z,71.95
2018-03-01T15:42:49.777Z,75.85
2018-03-01T15:45:16.024Z,77.47
2018-03-01T15:47:42.243Z,83.62
2018-03-01T15:50:08.483Z,79.95
2018-03-01T15:52:34.739Z,69.55
2018-03-01T15:55:00.949Z,75.70
2018-03-01T15:57:27.193Z,69.43
2018-03-01T15:59:53.416Z,79.87
2018-03-01T16:02:20.432Z,78.55
2018-03-01T16:04:46.640Z,92.82
2018-03-01T16:07:12.905Z,70.18
2018-03-01T16:09:39.853Z,89.55
2018-03-01T16:12:06.117Z,69.53
2018-03-01T16:14:32.329Z,82.60
2018-03-01T16:16:58.580Z,85.65
2018-03-01T16:19:24.871Z,87.10
2018-03-01T16:21:51.843Z,85.85
2018-03-01T16:24:18.091Z,78.90
2018-03-01T16:26:44.312Z,84.13
2018-03-01T16:29:11.285Z,69.30
2018-03-01T16:31:37.533Z,70.87
2018-03-01T16:34:03.761Z,83.25
2018-03-01T16:36:30.753Z,72.40
2018-03-01T16:38:56.983Z,76.05
2018-03-01T16:41:23.229Z,92.18
2018-03-01T16:43:49.465Z,90.03
2018-03-01T16:46:15.683Z,71.10
2018-03-01T16:48:41.922Z,84.07
2018-03-01T16:51:09.015Z,76.50
2018-03-01T16:53:35.256Z,69.97
2018-03-01T16:56:01.468Z,95.60
2018-03-01T16:58:27.684Z,81.70
2018-03-01T17:00:54.660Z,74.43
2018-03-01T17:03:20.884Z,74.05
2018-03-01T17:05:47.883Z,80.70
2018-03-01T17:08:14.171Z,81.15
2018-03-01T17:10:41.169Z,66.80
2018-03-01T17:13:07.439Z,85.53
2018-03-01T17:15:33.758Z,91.03
2018-03-01T17:18:00.078Z,71.47
2018-03-01T17:20:26.420Z,74.40
2018-03-01T17:22:53.112Z,71.95
2018-03-01T17:25:19.405Z,82.05
2018-03-01T17:27:46.405Z,78.07
2018-03-01T17:30:12.749Z,77.45
2018-03-01T17:32:39.028Z,66.85
2018-03-01T17:35:05.292Z,74.03
2018-03-01T17:37:31.590Z,73.95
2018-03-01T17:39:58.280Z,77.30
2018-03-01T17:42:24.528Z,82.55
2018-03-01T17:44:51.510Z,75.90
2018-03-01T17:47:17.806Z,73.07
2018-03-01T17:49:44.788Z,77.05
2018-03-01T17:52:11.780Z,90.20
2018-03-01T17:54:38.013Z,81.90
2018-03-01T17:57:04.345Z,80.55
2018-03-01T17:59:30.574Z,103.45
2018-03-01T18:01:56.853Z,98.68
2018-03-01T18:04:23.095Z,84.80
2018-03-01T18:06:49.321Z,81.45
2018-03-01T18:09:15.571Z,82.03
2018-03-01T18:11:41.837Z,83.87
2018-03-01T18:14:08.072Z,82.95
2018-03-01T18:16:34.310Z,81.80
2018-03-01T18:19:00.560Z,75.97
2018-03-01T18:21:26.771Z,98.07
2018-03-01T18:23:53.007Z,93.12
2018-03-01T18:26:19.313Z,89.43
2018-03-01T18:28:45.507Z,87.75
2018-03-01T18:31:11.736Z,90.40
2018-03-01T18:33:37.997Z,93.50
2018-03-01T18:36:04.259Z,95.62
2018-03-01T18:38:31.232Z,88.68
2018-03-01T18:40:58.584Z,87.70
2018-03-01T18:43:24.880Z,76.65
2018-03-01T18:45:51.201Z,83.22
2018-03-01T18:48:17.513Z,88.35
2018-03-01T18:50:44.533Z,81.03
2018-03-01T18:53:10.914Z,97.80
2018-03-01T18:55:37.974Z,92.97
2018-03-01T18:58:04.973Z,87.80
2018-03-01T19:00:31.258Z,86.68
2018-03-01T19:02:57.544Z,92.55
2018-03-01T19:05:24.081Z,86.60
2018-03-01T19:07:51.085Z,88.95
2018-03-01T19:10:17.304Z,80.47
2018-03-01T19:12:43.562Z,88.32
2018-03-01T19:15:09.813Z,77.32
2018-03-01T19:17:36.122Z,83.05
2018-03-01T19:20:02.438Z,89.68
2018-03-01T19:22:29.440Z,95.12
2018-03-01T19:24:56.703Z,87.78
2018-03-01T19:27:23.030Z,80.35
2018-03-01T19:29:49.295Z,99.72
2018-03-01T19:32:15.633Z,89.22
2018-03-01T19:34:41.902Z,85.03
2018-03-01T19:37:08.188Z,83.78
2018-03-01T19:39:34.494Z,81.47
2018-03-01T19:42:00.792Z,88.72
2018-03-01T19:44:27.074Z,90.55
2018-03-01T19:46:54.864Z,86.93
2018-03-01T19:49:21.896Z,86.70
2018-03-01T19:51:48.227Z,87.57
2018-03-01T19:54:16.039Z,84.40
2018-03-01T19:56:43.092Z,88.47
2018-03-01T19:59:09.407Z,84.87
2018-03-01T20:01:35.714Z,88.18
2018-03-01T20:04:02.042Z,77.57
2018-03-01T20:06:29.094Z,80.85
2018-03-01T20:08:56.137Z,84.07
2018-03-01T20:11:22.471Z,96.37
2018-03-01T20:13:48.768Z,87.28
2018-03-01T20:16:15.040Z,79.20
2018-03-01T20:18:41.330Z,87.25
2018-03-01T20:21:08.372Z,87.88
2018-03-01T20:23:35.390Z,87.93
2018-03-01T20:26:02.426Z,86.53
2018-03-01T20:28:28.716Z,72.82
2018-03-01T20:30:55.081Z,86.40
2018-03-01T20:33:22.136Z,89.03
2018-03-01T20:35:49.496Z,88.53
2018-03-01T20:38:15.755Z,101.50
2018-03-01T20:40:42.820Z,92.47
2018-03-01T20:43:10.198Z,100.03
2018-03-01T20:45:36.468Z,82.80
2018-03-01T20:48:02.755Z,86.43
2018-03-01T20:50:29.943Z,88.00
2018-03-01T20:52:56.268Z,85.87
2018-03-01T20:55:23.338Z,98.62
2018-03-01T20:57:50.359Z,91.95
2018-03-01T21:00:16.615Z,86.35
2018-03-01T21:02:43.673Z,95.25
2018-03-01T21:05:09.968Z,100.00
2018-03-01T21:07:36.221Z,106.45
2018-03-01T21:10:02.508Z,82.55
2018-03-01T21:12:29.515Z,93.37
2018-03-01T21:14:55.823Z,85.62
2018-03-01T21:17:22.779Z,94.72
2018-03-01T21:19:49.021Z,98.90
2018-03-01T21:22:16.042Z,94.55
2018-03-01T21:24:42.323Z,89.37
2018-03-01T21:27:08.577Z,97.03
2018-03-01T21:29:34.811Z,95.45
2018-03-01T21:32:01.078Z,98.57
2018-03-01T21:34:27.312Z,89.32
2018-03-01T21:36:53.559Z,87.78
2018-03-01T21:39:19.775Z,76.78
2018-03-01T21:41:46.049Z,87.70
2018-03-01T21:44:13.029Z,91.90
2018-03-01T21:46:39.294Z,105.18
2018-03-01T21:49:06.307Z,89.93
2018-03-01T21:51:32.519Z,90.15
2018-03-01T21:53:58.734Z,92.70
2018-03-01T21:56:25.700Z,92.07
2018-03-01T21:58:52.653Z,102.87
2018-03-01T22:01:19.675Z,94.20
2018-03-01T22:03:45.906Z,91.85
2018-03-01T22:06:12.142Z,95.00
2018-03-01T22:08:38.382Z,98.37
2018-03-01T22:11:04.620Z,109.63
2018-03-01T22:13:31.606Z,90.80
2018-03-01T22:15:57.833Z,101.57
2018-03-01T22:18:24.078Z,100.32
2018-03-01T22:20:50.366Z,101.95
2018-03-01T22:23:16.623Z,92.78
2018-03-01T22:25:42.850Z,85.40
2018-03-01T22:28:09.066Z,88.35
2018-03-01T22:30:36.068Z,97.97
2018-03-01T22:33:02.296Z,111.88
2018-03-01T22:35:28.529Z,92.20
2018-03-01T22:37:54.744Z,87.03
2018-03-01T22:40:21.745Z,98.85
2018-03-01T22:42:47.969Z,97.68
2018-03-01T22:45:14.208Z,95.57
2018-03-01T22:47:40.397Z,99.10
2018-03-01T22:50:06.643Z,104.95
2018-03-01T22:52:32.866Z,92.75
2018-03-01T22:54:59.087Z,89.97
2018-03-01T22:57:25.328Z,103.90
2018-03-01T22:59:51.542Z,106.70
2018-03-01T23:02:17.772Z,97.82
2018-03-01T23:04:44.741Z,102.25
2018-03-01T23:07:10.975Z,104.07
2018-03-01T23:09:37.202Z,98.15
2018-03-01T23:12:04.147Z,95.85
2018-03-01T23:14:30.385Z,85.47
2018-03-01T23:16:56.603Z,90.97
2018-03-01T23:19:23.582Z,88.28
2018-03-01T23:21:49.843Z,101.38
2018-03-01T23:24:16.807Z,102.18
2018-03-01T23:26:43.793Z,104.32
2018-03-01T23:29:10.067Z,108.05
2018-03-01T23:31:36.298Z,99.55
2018-03-01T23:34:02.515Z,102.60
2018-03-01T23:36:28.743Z,94.28
2018-03-01T23:38:54.955Z,110.03
2018-03-01T23:41:21.923Z,104.20
2018-03-01T23:43:48.895Z,104.07
2018-03-01T23:46:15.154Z,107.87
2018-03-01T23:48:41.373Z,105.12
2018-03-01T23:51:07.583Z,98.65
2018-03-01T23:53:33.799Z,118.05
2018-03-01T23:56:00.013Z,97.85
2018-03-01T23:58:26.261Z,104.40
